Time,TemperatureF,DewpointF,PressureIn,WindDirection,WindDirectionDegrees,WindSpeedMPH,WindSpeedGustMPH,Humidity,HourlyPrecipIn,Conditions,Clouds,dailyrainin,SoftwareType,DateUTC
2013-05-10 00:01:00,53.8,53.8,29.97,NE,34,2.0,3.0,100,0.00,,,0.00,VWS V14.01,2013-05-10 05:01:00,
2013-05-10 00:06:00,53.6,53.6,29.98,NE,34,1.0,2.0,100,0.00,,,0.00,VWS V14.01,2013-05-10 05:06:00,
2013-05-10 00:11:00,53.8,53.8,29.98,NE,34,2.0,3.0,100,0.00,,,0.00,VWS V14.01,2013-05-10 05:11:00,
2013-05-10 00:16:00,53.9,53.9,29.98,NE,34,0.0,5.0,100,0.00,,,0.00,VWS V14.01,2013-05-10 05:16:00,
2013-05-10 00:21:00,53.6,53.6,29.99,NE,34,1.0,2.0,100,0.00,,,0.00,VWS V14.01,2013-05-10 05:21:00,
2013-05-10 00:26:00,53.3,53.3,29.99,NE,34,0.0,3.0,100,0.00,,,0.00,VWS V14.01,2013-05-10 05:26:00,
2013-05-10 00:31:00,53.1,53.1,29.99,NE,34,0.0,3.0,100,0.00,,,0.00,VWS V14.01,2013-05-10 05:31:00,
2013-05-10 00:36:00,52.6,52.6,29.99,NE,34,1.0,2.0,100,0.00,,,0.00,VWS V14.01,2013-05-10 05:36:00,
2013-05-10 00:41:00,52.5,52.5,29.99,NE,34,0.0,2.0,100,0.00,,,0.00,VWS V14.01,2013-05-10 05:41:00,
2013-05-10 00:46:00,52.3,52.3,29.99,NE,34,0.0,2.0,100,0.00,,,0.00,VWS V14.01,2013-05-10 05:46:00,
2013-05-10 00:51:00,52.2,52.2,30.00,NE,34,0.0,0.0,100,0.00,,,0.00,VWS V14.01,2013-05-10 05:51:00,
2013-05-10 00:56:00,52.0,52.0,30.00,NE,34,0.0,0.0,100,0.00,,,0.00,VWS V14.01,2013-05-10 05:56:00,
2013-05-10 01:01:00,51.6,51.6,30.00,NE,34,0.0,2.0,100,0.00,,,0.00,VWS V14.01,2013-05-10 06:01:00,
2013-05-10 01:06:00,51.0,51.0,29.99,NE,34,2.0,2.0,100,0.00,,,0.00,VWS V14.01,2013-05-10 06:06:00,
2013-05-10 01:11:00,50.4,50.4,29.99,NE,34,1.0,2.0,100,0.00,,,0.00,VWS V14.01,2013-05-10 06:11:00,
2013-05-10 01:16:00,50.2,50.2,29.99,NE,34,0.0,2.0,100,0.00,,,0.00,VWS V14.01,2013-05-10 06:16:00,
2013-05-10 01:21:00,50.5,50.5,30.00,NE,34,2.0,2.0,100,0.00,,,0.00,VWS V14.01,2013-05-10 06:21:00,
2013-05-10 01:26:00,50.7,50.7,30.00,NE,34,2.0,3.0,100,0.00,,,0.00,VWS V14.01,2013-05-10 06:26:00,
2013-05-10 01:31:00,50.7,50.7,30.00,NE,34,0.0,3.0,100,0.00,,,0.00,VWS V14.01,2013-05-10 06:31:00,
2013-05-10 01:36:00,50.8,50.8,29.99,NE,34,0.0,2.0,100,0.00,,,0.00,VWS V14.01,2013-05-10 06:36:00,
2013-05-10 01:41:00,51.0,51.0,29.99,NE,34,0.0,5.0,100,0.00,,,0.00,VWS V14.01,2013-05-10 06:41:00,
2013-05-10 01:46:00,50.8,50.8,29.99,NE,34,1.0,5.0,100,0.00,,,0.00,VWS V14.01,2013-05-10 06:46:00,
2013-05-10 01:51:00,50.7,50.7,29.99,NNE,32,2.0,5.0,100,0.00,,,0.00,VWS V14.01,2013-05-10 06:51:00,
2013-05-10 01:56:00,50.5,50.5,29.99,NNE,27,0.0,5.0,100,0.00,,,0.00,VWS V14.01,2013-05-10 06:56:00,
2013-05-10 02:01:00,50.4,50.4,29.99,NNE,13,0.0,6.0,100,0.00,,,0.00,VWS V14.01,2013-05-10 07:01:00,
2013-05-10 02:06:00,50.1,50.1,29.99,NNE,13,2.0,2.0,100,0.00,,,0.00,VWS V14.01,2013-05-10 07:06:00,
2013-05-10 02:11:00,49.6,49.6,29.99,NNE,13,1.0,2.0,100,0.00,,,0.00,VWS V14.01,2013-05-10 07:11:00,
2013-05-10 02:16:00,49.2,49.2,29.99,NNE,13,0.0,2.0,100,0.00,,,0.00,VWS V14.01,2013-05-10 07:16:00,
2013-05-10 02:21:00,48.8,48.8,29.99,NNE,13,0.0,0.0,100,0.00,,,0.00,VWS V14.01,2013-05-10 07:21:00,
2013-05-10 02:26:00,48.6,48.6,29.99,NNE,13,0.0,0.0,100,0.00,,,0.00,VWS V14.01,2013-05-10 07:26:00,
2013-05-10 02:31:00,48.6,48.6,29.99,NNE,13,0.0,0.0,100,0.00,,,0.00,VWS V14.01,2013-05-10 07:31:00,
2013-05-10 02:36:00,48.6,48.6,29.99,NNE,13,0.0,0.0,100,0.00,,,0.00,VWS V14.01,2013-05-10 07:36:00,
2013-05-10 02:41:00,48.6,48.6,29.99,NNE,13,0.0,0.0,100,0.00,,,0.00,VWS V14.01,2013-05-10 07:41:00,
2013-05-10 02:46:00,48.2,48.2,29.99,NNE,13,0.0,0.0,100,0.00,,,0.00,VWS V14.01,2013-05-10 07:46:00,
2013-05-10 02:51:00,48.0,48.0,30.00,NNE,13,0.0,0.0,100,0.00,,,0.00,VWS V14.01,2013-05-10 07:51:00,
2013-05-10 02:56:00,47.9,47.9,30.00,NNE,13,0.0,0.0,100,0.00,,,0.00,VWS V14.01,2013-05-10 07:56:00,
2013-05-10 03:01:00,47.9,47.9,30.00,NNE,13,0.0,0.0,100,0.00,,,0.00,VWS V14.01,2013-05-10 08:01:00,
2013-05-10 03:06:00,48.0,48.0,30.00,NNE,13,0.0,0.0,100,0.00,,,0.00,VWS V14.01,2013-05-10 08:06:00,
2013-05-10 03:11:00,48.0,48.0,30.00,NNE,13,0.0,0.0,100,0.00,,,0.00,VWS V14.01,2013-05-10 08:11:00,
2013-05-10 03:16:00,47.9,47.9,30.00,NNE,13,0.0,0.0,100,0.00,,,0.00,VWS V14.01,2013-05-10 08:16:00,
2013-05-10 03:21:00,47.7,47.7,30.00,NNE,13,0.0,0.0,100,0.00,,,0.00,VWS V14.01,2013-05-10 08:21:00,
2013-05-10 03:26:00,47.4,47.4,30.00,NNE,13,0.0,0.0,100,0.00,,,0.00,VWS V14.01,2013-05-10 08:26:00,
2013-05-10 03:31:00,47.3,47.3,30.00,NNE,13,0.0,0.0,100,0.00,,,0.00,VWS V14.01,2013-05-10 08:31:00,
2013-05-10 03:36:00,46.8,46.8,30.01,NNE,13,0.0,0.0,100,0.00,,,0.00,VWS V14.01,2013-05-10 08:36:00,
2013-05-10 03:41:00,47.1,47.1,30.01,NNE,13,0.0,0.0,100,0.00,,,0.00,VWS V14.01,2013-05-10 08:41:00,
2013-05-10 03:46:00,47.3,47.3,30.01,NNE,13,0.0,0.0,100,0.00,,,0.00,VWS V14.01,2013-05-10 08:46:00,
2013-05-10 03:51:00,47.7,47.7,30.01,NNE,13,0.0,0.0,100,0.00,,,0.00,VWS V14.01,2013-05-10 08:51:00,
2013-05-10 03:56:00,47.9,47.9,30.01,NNE,13,0.0,0.0,100,0.00,,,0.00,VWS V14.01,2013-05-10 08:56:00,
2013-05-10 04:01:00,47.9,47.9,30.01,NNE,13,0.0,0.0,100,0.00,,,0.00,VWS V14.01,2013-05-10 09:01:00,
2013-05-10 04:06:00,47.7,47.7,30.01,NNE,13,0.0,0.0,100,0.00,,,0.00,VWS V14.01,2013-05-10 09:06:00,
2013-05-10 04:11:00,47.1,47.1,30.01,NNE,13,0.0,0.0,100,0.00,,,0.00,VWS V14.01,2013-05-10 09:11:00,
2013-05-10 04:16:00,46.8,46.8,30.01,NNE,13,0.0,0.0,100,0.00,,,0.00,VWS V14.01,2013-05-10 09:16:00,
2013-05-10 04:21:00,46.5,46.5,30.02,NNE,13,0.0,0.0,100,0.00,,,0.00,VWS V14.01,2013-05-10 09:21:00,
2013-05-10 04:26:00,46.4,46.4,30.02,NNE,13,0.0,0.0,100,0.00,,,0.00,VWS V14.01,2013-05-10 09:26:00,
2013-05-10 04:31:00,46.8,46.8,30.02,NNE,13,0.0,2.0,100,0.00,,,0.00,VWS V14.01,2013-05-10 09:31:00,
2013-05-10 04:36:00,47.0,47.0,30.03,NNE,13,0.0,2.0,100,0.00,,,0.00,VWS V14.01,2013-05-10 09:36:00,
2013-05-10 04:41:00,47.0,47.0,30.03,NNE,13,0.0,2.0,100,0.00,,,0.00,VWS V14.01,2013-05-10 09:41:00,
2013-05-10 04:46:00,47.1,47.1,30.03,NNE,13,0.0,2.0,100,0.00,,,0.00,VWS V14.01,2013-05-10 09:46:00,
2013-05-10 04:51:00,47.1,47.1,30.03,NNE,13,0.0,0.0,100,0.00,,,0.00,VWS V14.01,2013-05-10 09:51:00,
2013-05-10 04:56:00,47.0,47.0,30.03,NNE,13,0.0,0.0,100,0.00,,,0.00,VWS V14.01,2013-05-10 09:56:00,
2013-05-10 05:01:00,46.7,46.7,30.03,NNE,13,0.0,0.0,100,0.00,,,0.00,VWS V14.01,2013-05-10 10:01:00,
2013-05-10 05:06:00,46.5,46.5,30.03,NNE,13,0.0,0.0,100,0.00,,,0.00,VWS V14.01,2013-05-10 10:06:00,
2013-05-10 05:11:00,46.5,46.5,30.03,NNE,13,0.0,0.0,100,0.00,,,0.00,VWS V14.01,2013-05-10 10:11:00,
2013-05-10 05:16:00,46.7,46.7,30.03,NNE,13,0.0,0.0,100,0.00,,,0.00,VWS V14.01,2013-05-10 10:16:00,
2013-05-10 05:21:00,47.1,47.1,30.02,NNE,13,0.0,0.0,100,0.00,,,0.00,VWS V14.01,2013-05-10 10:21:00,
2013-05-10 05:26:00,47.6,47.6,30.02,NNE,13,0.0,0.0,100,0.00,,,0.00,VWS V14.01,2013-05-10 10:26:00,
2013-05-10 05:31:00,48.0,48.0,30.02,NNE,13,0.0,0.0,100,0.00,,,0.00,VWS V14.01,2013-05-10 10:31:00,
2013-05-10 05:36:00,48.2,48.2,30.01,NNE,13,0.0,1.0,100,0.00,,,0.00,VWS V14.01,2013-05-10 10:36:00,
2013-05-10 05:41:00,48.5,48.5,30.01,NNE,13,0.0,1.0,100,0.00,,,0.00,VWS V14.01,2013-05-10 10:41:00,
2013-05-10 05:46:00,48.6,48.6,30.01,NNE,13,0.0,1.0,100,0.00,,,0.00,VWS V14.01,2013-05-10 10:46:00,
2013-05-10 05:51:00,48.8,48.8,30.00,NNE,13,0.0,0.0,100,0.00,,,0.00,VWS V14.01,2013-05-10 10:51:00,
2013-05-10 05:56:00,48.9,48.9,30.00,NNE,13,0.0,0.0,100,0.00,,,0.00,VWS V14.01,2013-05-10 10:56:00,
2013-05-10 06:01:00,49.1,49.1,30.00,NNE,13,0.0,0.0,100,0.00,,,0.00,VWS V14.01,2013-05-10 11:01:00,
2013-05-10 06:06:00,49.2,49.2,30.00,NNE,13,0.0,0.0,100,0.00,,,0.00,VWS V14.01,2013-05-10 11:06:00,
2013-05-10 06:11:00,49.5,49.5,30.00,NNE,13,0.0,0.0,100,0.00,,,0.00,VWS V14.01,2013-05-10 11:11:00,
2013-05-10 06:16:00,49.8,49.8,30.00,NNE,13,0.0,0.0,100,0.00,,,0.00,VWS V14.01,2013-05-10 11:16:00,
2013-05-10 06:21:00,50.2,50.2,30.00,NNE,13,0.0,0.0,100,0.00,,,0.00,VWS V14.01,2013-05-10 11:21:00,
2013-05-10 06:26:00,50.5,50.5,30.00,NNE,13,0.0,0.0,100,0.00,,,0.00,VWS V14.01,2013-05-10 11:26:00,
2013-05-10 06:31:00,50.8,50.0,30.00,NNE,13,0.0,0.0,97,0.00,,,0.00,VWS V14.01,2013-05-10 11:31:00,
2013-05-10 06:36:00,51.1,48.9,30.00,NNE,13,0.0,0.0,92,0.00,,,0.00,VWS V14.01,2013-05-10 11:36:00,
2013-05-10 06:41:00,51.3,48.2,30.00,NNE,13,0.0,0.0,89,0.00,,,0.00,VWS V14.01,2013-05-10 11:41:00,
2013-05-10 06:46:00,51.3,48.2,30.00,NNE,13,0.0,0.0,89,0.00,,,0.00,VWS V14.01,2013-05-10 11:46:00,
2013-05-10 06:51:00,51.1,48.6,30.01,NNE,13,0.0,0.0,91,0.00,,,0.00,VWS V14.01,2013-05-10 11:51:00,
2013-05-10 06:56:00,51.0,48.8,30.01,NNE,13,0.0,0.0,92,0.00,,,0.00,VWS V14.01,2013-05-10 11:56:00,
2013-05-10 07:01:00,51.0,49.0,30.01,NNE,13,0.0,0.0,93,0.00,,,0.00,VWS V14.01,2013-05-10 12:01:00,
2013-05-10 07:06:00,51.0,49.6,30.00,NNE,13,0.0,0.0,95,0.00,,,0.00,VWS V14.01,2013-05-10 12:06:00,
2013-05-10 07:11:00,50.8,49.7,30.00,NNE,13,0.0,0.0,96,0.00,,,0.00,VWS V14.01,2013-05-10 12:11:00,
2013-05-10 07:16:00,51.0,50.7,30.00,NNE,13,0.0,0.0,99,0.00,,,0.00,VWS V14.01,2013-05-10 12:16:00,
2013-05-10 07:21:00,51.3,51.3,30.01,NNE,13,0.0,0.0,100,0.00,,,0.00,VWS V14.01,2013-05-10 12:21:00,
2013-05-10 07:26:00,51.6,51.3,30.01,NE,47,0.0,0.0,99,0.00,,,0.00,VWS V14.01,2013-05-10 12:26:00,
2013-05-10 07:31:00,51.7,51.4,30.01,NE,47,0.0,0.0,99,0.00,,,0.00,VWS V14.01,2013-05-10 12:31:00,
2013-05-10 07:36:00,52.2,52.2,30.01,NE,47,0.0,0.0,100,0.00,,,0.00,VWS V14.01,2013-05-10 12:36:00,
2013-05-10 07:41:00,52.8,52.8,30.01,NE,47,0.0,0.0,100,0.00,,,0.00,VWS V14.01,2013-05-10 12:41:00,
2013-05-10 07:46:00,53.1,53.1,30.01,NE,47,0.0,2.0,100,0.00,,,0.00,VWS V14.01,2013-05-10 12:46:00,
2013-05-10 07:51:00,53.6,52.2,30.00,NE,47,1.0,2.0,95,0.00,,,0.00,VWS V14.01,2013-05-10 12:51:00,
2013-05-10 07:56:00,54.1,52.1,30.00,NE,47,1.0,3.0,93,0.00,,,0.00,VWS V14.01,2013-05-10 12:56:00,
2013-05-10 08:01:00,54.1,51.5,30.00,NE,47,2.0,4.0,91,0.00,,,0.00,VWS V14.01,2013-05-10 13:01:00,
2013-05-10 08:06:00,54.2,51.3,30.01,NE,47,0.0,2.0,90,0.00,,,0.00,VWS V14.01,2013-05-10 13:06:00,
2013-05-10 08:11:00,54.4,51.2,30.01,NE,47,4.0,7.0,89,0.00,,,0.00,VWS V14.01,2013-05-10 13:11:00,
2013-05-10 08:16:00,54.4,50.9,30.01,North,7,5.0,7.0,88,0.00,,,0.00,VWS V14.01,2013-05-10 13:16:00,
2013-05-10 08:21:00,54.7,50.9,30.01,North,7,5.0,6.0,87,0.00,,,0.00,VWS V14.01,2013-05-10 13:21:00,
2013-05-10 08:26:00,54.8,51.3,30.01,North,7,4.0,6.0,88,0.00,,,0.00,VWS V14.01,2013-05-10 13:26:00,
2013-05-10 08:31:00,54.7,51.5,30.01,North,7,3.0,6.0,89,0.00,,,0.00,VWS V14.01,2013-05-10 13:31:00,
2013-05-10 08:36:00,54.7,51.8,30.01,North,7,1.0,5.0,90,0.00,,,0.00,VWS V14.01,2013-05-10 13:36:00,
2013-05-10 08:41:00,54.7,51.8,30.01,North,7,4.0,5.0,90,0.00,,,0.00,VWS V14.01,2013-05-10 13:41:00,
2013-05-10 08:46:00,54.8,51.6,30.01,North,7,5.0,7.0,89,0.00,,,0.00,VWS V14.01,2013-05-10 13:46:00,
2013-05-10 08:51:00,54.5,50.7,30.01,North,6,6.0,8.0,87,0.00,,,0.00,VWS V14.01,2013-05-10 13:51:00,
2013-05-10 08:56:00,54.4,50.9,30.01,North,6,6.0,8.0,88,0.00,,,0.00,VWS V14.01,2013-05-10 13:56:00,
2013-05-10 09:01:00,54.4,50.9,30.01,North,6,5.0,8.0,88,0.00,,,0.00,VWS V14.01,2013-05-10 14:01:00,
2013-05-10 09:06:00,54.5,51.0,30.01,North,6,3.0,6.0,88,0.00,,,0.00,VWS V14.01,2013-05-10 14:06:00,
2013-05-10 09:11:00,54.7,51.5,30.01,North,6,1.0,6.0,89,0.00,,,0.00,VWS V14.01,2013-05-10 14:11:00,
2013-05-10 09:16:00,55.0,51.2,30.01,North,6,2.0,6.0,87,0.00,,,0.00,VWS V14.01,2013-05-10 14:16:00,
2013-05-10 09:21:00,55.6,52.7,30.02,WNW,299,1.0,5.0,90,0.00,,,0.00,VWS V14.01,2013-05-10 14:21:00,
2013-05-10 09:26:00,55.7,52.2,30.02,NW,326,2.0,5.0,88,0.00,,,0.00,VWS V14.01,2013-05-10 14:26:00,
2013-05-10 09:31:00,55.9,52.1,30.02,NW,326,5.0,6.0,87,0.00,,,0.00,VWS V14.01,2013-05-10 14:31:00,
2013-05-10 09:36:00,55.7,51.9,30.01,NW,326,3.0,5.0,87,0.00,,,0.00,VWS V14.01,2013-05-10 14:36:00,
2013-05-10 09:41:00,55.9,51.8,30.01,NW,326,3.0,5.0,86,0.00,,,0.00,VWS V14.01,2013-05-10 14:41:00,
2013-05-10 09:46:00,56.3,51.5,30.01,NW,326,1.0,5.0,84,0.00,,,0.00,VWS V14.01,2013-05-10 14:46:00,
2013-05-10 09:51:00,56.7,51.6,30.01,NW,326,2.0,3.0,83,0.00,,,0.00,VWS V14.01,2013-05-10 14:51:00,
2013-05-10 09:56:00,57.5,51.7,30.01,NW,326,1.0,3.0,81,0.00,,,0.00,VWS V14.01,2013-05-10 14:56:00,
2013-05-10 10:01:00,57.8,50.3,30.01,North,357,5.0,6.0,76,0.00,,,0.00,VWS V14.01,2013-05-10 15:01:00,
2013-05-10 10:06:00,57.5,50.7,30.01,North,359,5.0,6.0,78,0.00,,,0.00,VWS V14.01,2013-05-10 15:06:00,
2013-05-10 10:11:00,57.5,51.0,30.01,North,359,4.0,6.0,79,0.00,,,0.00,VWS V14.01,2013-05-10 15:11:00,
2013-05-10 10:16:00,58.3,52.2,30.01,North,359,3.0,6.0,80,0.00,,,0.00,VWS V14.01,2013-05-10 15:16:00,
2013-05-10 10:21:00,58.6,51.1,30.01,North,359,2.0,5.0,76,0.00,,,0.00,VWS V14.01,2013-05-10 15:21:00,
2013-05-10 10:26:00,59.0,50.4,30.01,North,359,5.0,5.0,73,0.00,,,0.00,VWS V14.01,2013-05-10 15:26:00,
2013-05-10 10:31:00,59.5,50.8,30.01,North,359,2.0,5.0,73,0.00,,,0.00,VWS V14.01,2013-05-10 15:31:00,
2013-05-10 10:36:00,59.2,50.6,30.00,North,359,4.0,6.0,73,0.00,,,0.00,VWS V14.01,2013-05-10 15:36:00,
2013-05-10 10:41:00,59.3,51.0,30.00,North,10,5.0,7.0,74,0.00,,,0.00,VWS V14.01,2013-05-10 15:41:00,
2013-05-10 10:46:00,59.8,52.2,30.00,North,11,5.0,7.0,76,0.00,,,0.00,VWS V14.01,2013-05-10 15:46:00,
2013-05-10 10:51:00,59.8,51.5,30.00,NNE,28,5.0,7.0,74,0.00,,,0.00,VWS V14.01,2013-05-10 15:51:00,
2013-05-10 10:56:00,60.2,51.2,30.00,NNE,31,3.0,7.0,72,0.00,,,0.00,VWS V14.01,2013-05-10 15:56:00,
2013-05-10 11:01:00,61.0,51.9,30.00,NNE,31,5.0,7.0,72,0.00,,,0.00,VWS V14.01,2013-05-10 16:01:00,
2013-05-10 11:06:00,61.5,49.6,30.00,NNE,31,4.0,7.0,65,0.00,,,0.00,VWS V14.01,2013-05-10 16:06:00,
2013-05-10 11:11:00,61.6,50.5,30.00,NE,38,2.0,7.0,67,0.00,,,0.00,VWS V14.01,2013-05-10 16:11:00,
2013-05-10 11:16:00,62.0,50.9,30.00,NNE,32,6.0,7.0,67,0.00,,,0.00,VWS V14.01,2013-05-10 16:16:00,
2013-05-10 11:21:00,62.3,49.6,30.00,NNE,27,5.0,5.0,63,0.00,,,0.00,VWS V14.01,2013-05-10 16:21:00,
2013-05-10 11:26:00,62.3,48.7,30.00,NNE,27,0.0,7.0,61,0.00,,,0.00,VWS V14.01,2013-05-10 16:26:00,
2013-05-10 11:31:00,62.4,47.0,30.00,North,359,11.0,12.0,57,0.00,,,0.00,VWS V14.01,2013-05-10 16:31:00,
2013-05-10 11:36:00,62.7,45.8,30.00,NNW,346,9.0,12.0,54,0.00,,,0.00,VWS V14.01,2013-05-10 16:36:00,
2013-05-10 11:41:00,62.9,48.4,30.00,NNE,27,5.0,12.0,59,0.00,,,0.00,VWS V14.01,2013-05-10 16:41:00,
2013-05-10 11:46:00,63.2,47.3,30.00,North,6,5.0,12.0,56,0.00,,,0.00,VWS V14.01,2013-05-10 16:46:00,
2013-05-10 11:51:00,63.4,47.0,30.00,North,6,5.0,7.0,55,0.00,,,0.00,VWS V14.01,2013-05-10 16:51:00,
2013-05-10 11:56:00,63.7,45.2,30.00,North,356,7.0,9.0,51,0.00,,,0.00,VWS V14.01,2013-05-10 16:56:00,
2013-05-10 12:01:00,63.7,48.2,30.00,North,359,6.0,10.0,57,0.00,,,0.00,VWS V14.01,2013-05-10 17:01:00,
2013-05-10 12:06:00,63.7,46.3,30.00,NNE,21,7.0,7.0,53,0.00,,,0.00,VWS V14.01,2013-05-10 17:06:00,
2013-05-10 12:11:00,63.7,48.2,30.00,North,10,6.0,9.0,57,0.00,,,0.00,VWS V14.01,2013-05-10 17:11:00,
2013-05-10 12:16:00,63.7,45.2,30.00,North,0,9.0,16.0,51,0.00,,,0.00,VWS V14.01,2013-05-10 17:16:00,
2013-05-10 12:21:00,63.5,46.6,30.01,North,0,10.0,11.0,54,0.00,,,0.00,VWS V14.01,2013-05-10 17:21:00,
2013-05-10 12:26:00,64.0,45.0,30.01,North,356,8.0,11.0,50,0.00,,,0.00,VWS V14.01,2013-05-10 17:26:00,
2013-05-10 12:31:00,63.9,46.0,30.01,North,0,9.0,12.0,52,0.00,,,0.00,VWS V14.01,2013-05-10 17:31:00,
2013-05-10 12:36:00,63.9,46.0,30.01,NNE,31,6.0,10.0,52,0.00,,,0.00,VWS V14.01,2013-05-10 17:36:00,
2013-05-10 12:41:00,64.0,46.5,30.01,NNE,30,7.0,15.0,53,0.00,,,0.00,VWS V14.01,2013-05-10 17:41:00,
2013-05-10 12:46:00,64.3,49.2,30.01,NNE,24,7.0,15.0,58,0.00,,,0.00,VWS V14.01,2013-05-10 17:46:00,
2013-05-10 12:51:00,64.7,47.2,30.00,NNE,28,7.0,9.0,53,0.00,,,0.00,VWS V14.01,2013-05-10 17:51:00,
2013-05-10 12:56:00,64.5,49.0,30.00,NNE,20,5.0,9.0,57,0.00,,,0.00,VWS V14.01,2013-05-10 17:56:00,
2013-05-10 13:01:00,64.5,47.5,30.00,NNE,20,3.0,9.0,54,0.00,,,0.00,VWS V14.01,2013-05-10 18:01:00,
2013-05-10 13:06:00,64.7,47.7,30.00,NE,34,4.0,8.0,54,0.00,,,0.00,VWS V14.01,2013-05-10 18:06:00,
2013-05-10 13:11:00,64.7,47.2,30.00,North,357,2.0,13.0,53,0.00,,,0.00,VWS V14.01,2013-05-10 18:11:00,
2013-05-10 13:16:00,65.0,44.8,30.00,NNE,17,5.0,13.0,48,0.00,,,0.00,VWS V14.01,2013-05-10 18:16:00,
2013-05-10 13:21:00,65.5,47.4,30.00,NNE,17,7.0,7.0,52,0.00,,,0.00,VWS V14.01,2013-05-10 18:21:00,
2013-05-10 13:26:00,65.3,45.7,30.00,NNE,23,6.0,7.0,49,0.00,,,0.00,VWS V14.01,2013-05-10 18:26:00,
2013-05-10 13:31:00,65.2,47.7,30.00,North,356,6.0,10.0,53,0.00,,,0.00,VWS V14.01,2013-05-10 18:31:00,
2013-05-10 13:36:00,65.3,45.1,30.00,North,6,5.0,9.0,48,0.00,,,0.00,VWS V14.01,2013-05-10 18:36:00,
2013-05-10 13:41:00,65.5,46.9,30.00,NNE,31,6.0,9.0,51,0.00,,,0.00,VWS V14.01,2013-05-10 18:41:00,
2013-05-10 13:46:00,65.8,46.7,30.00,North,0,2.0,9.0,50,0.00,,,0.00,VWS V14.01,2013-05-10 18:46:00,
2013-05-10 13:51:00,66.3,44.3,29.99,North,1,3.0,6.0,45,0.00,,,0.00,VWS V14.01,2013-05-10 18:51:00,
2013-05-10 13:56:00,66.4,47.2,29.99,North,0,3.0,7.0,50,0.00,,,0.00,VWS V14.01,2013-05-10 18:56:00,
2013-05-10 14:01:00,66.6,45.8,29.99,North,1,5.0,7.0,47,0.00,,,0.00,VWS V14.01,2013-05-10 19:01:00,
2013-05-10 14:06:00,66.6,43.4,29.99,NNE,17,5.0,7.0,43,0.00,,,0.00,VWS V14.01,2013-05-10 19:06:00,
2013-05-10 14:11:00,66.1,46.9,29.99,NNE,21,7.0,8.0,50,0.00,,,0.00,VWS V14.01,2013-05-10 19:11:00,
2013-05-10 14:16:00,66.3,45.5,29.99,NNE,21,3.0,8.0,47,0.00,,,0.00,VWS V14.01,2013-05-10 19:16:00,
2013-05-10 14:21:00,66.3,44.3,29.99,NNE,21,2.0,7.0,45,0.00,,,0.00,VWS V14.01,2013-05-10 19:21:00,
2013-05-10 14:26:00,66.1,44.7,29.99,NNE,21,3.0,7.0,46,0.00,,,0.00,VWS V14.01,2013-05-10 19:26:00,
2013-05-10 14:31:00,66.4,47.2,29.99,NNE,24,6.0,7.0,50,0.00,,,0.00,VWS V14.01,2013-05-10 19:31:00,
2013-05-10 14:36:00,66.6,43.4,29.99,NNE,25,7.0,8.0,43,0.00,,,0.00,VWS V14.01,2013-05-10 19:36:00,
2013-05-10 14:41:00,66.9,46.0,29.99,NNE,25,4.0,8.0,47,0.00,,,0.00,VWS V14.01,2013-05-10 19:41:00,
2013-05-10 14:46:00,66.9,43.1,29.99,NNE,24,7.0,8.0,42,0.00,,,0.00,VWS V14.01,2013-05-10 19:46:00,
2013-05-10 14:51:00,66.6,46.3,29.99,NNE,24,5.0,7.0,48,0.00,,,0.00,VWS V14.01,2013-05-10 19:51:00,
2013-05-10 14:56:00,66.4,45.0,29.99,North,1,5.0,10.0,46,0.00,,,0.00,VWS V14.01,2013-05-10 19:56:00,
2013-05-10 15:01:00,66.3,43.8,29.98,North,1,2.0,10.0,44,0.00,,,0.00,VWS V14.01,2013-05-10 20:01:00,
2013-05-10 15:06:00,66.6,44.6,29.98,North,3,3.0,7.0,45,0.00,,,0.00,VWS V14.01,2013-05-10 20:06:00,
2013-05-10 15:11:00,67.1,41.3,29.98,North,359,5.0,10.0,39,0.00,,,0.00,VWS V14.01,2013-05-10 20:11:00,
2013-05-10 15:16:00,67.4,41.6,29.97,North,359,2.0,10.0,39,0.00,,,0.00,VWS V14.01,2013-05-10 20:16:00,
2013-05-10 15:21:00,67.6,41.1,29.97,North,8,5.0,7.0,38,0.00,,,0.00,VWS V14.01,2013-05-10 20:21:00,
2013-05-10 15:26:00,67.6,39.7,29.97,North,359,3.0,11.0,36,0.00,,,0.00,VWS V14.01,2013-05-10 20:26:00,
2013-05-10 15:31:00,67.9,41.4,29.97,North,359,8.0,11.0,38,0.00,,,0.00,VWS V14.01,2013-05-10 20:31:00,
2013-05-10 15:36:00,67.9,44.6,29.96,North,356,7.0,11.0,43,0.00,,,0.00,VWS V14.01,2013-05-10 20:36:00,
2013-05-10 15:41:00,67.9,40.7,29.96,NE,34,6.0,12.0,37,0.00,,,0.00,VWS V14.01,2013-05-10 20:41:00,
2013-05-10 15:46:00,67.9,42.7,29.96,North,3,2.0,12.0,40,0.00,,,0.00,VWS V14.01,2013-05-10 20:46:00,
2013-05-10 15:51:00,68.4,40.4,29.96,North,4,5.0,10.0,36,0.00,,,0.00,VWS V14.01,2013-05-10 20:51:00,
2013-05-10 15:56:00,68.6,38.4,29.96,NE,41,5.0,12.0,33,0.00,,,0.00,VWS V14.01,2013-05-10 20:56:00,
2013-05-10 16:01:00,68.6,44.6,29.95,NE,37,7.0,12.0,42,0.00,,,0.00,VWS V14.01,2013-05-10 21:01:00,
2013-05-10 16:06:00,68.6,43.3,29.95,NNE,31,9.0,9.0,40,0.00,,,0.00,VWS V14.01,2013-05-10 21:06:00,
2013-05-10 16:11:00,67.9,43.4,29.95,NE,42,6.0,10.0,41,0.00,,,0.00,VWS V14.01,2013-05-10 21:11:00,
2013-05-10 16:16:00,67.9,42.1,29.95,NE,37,4.0,10.0,39,0.00,,,0.00,VWS V14.01,2013-05-10 21:16:00,
2013-05-10 16:21:00,67.8,43.3,29.95,NE,37,5.0,7.0,41,0.00,,,0.00,VWS V14.01,2013-05-10 21:21:00,
2013-05-10 16:26:00,67.9,42.1,29.95,NNE,17,6.0,7.0,39,0.00,,,0.00,VWS V14.01,2013-05-10 21:26:00,
2013-05-10 16:31:00,68.6,39.1,29.94,NNE,20,5.0,10.0,34,0.00,,,0.00,VWS V14.01,2013-05-10 21:31:00,
2013-05-10 16:36:00,68.4,41.1,29.94,NNE,13,5.0,8.0,37,0.00,,,0.00,VWS V14.01,2013-05-10 21:36:00,
2013-05-10 16:41:00,68.6,43.3,29.94,NE,55,7.0,8.0,40,0.00,,,0.00,VWS V14.01,2013-05-10 21:41:00,
2013-05-10 16:46:00,68.9,43.0,29.93,NE,54,3.0,8.0,39,0.00,,,0.00,VWS V14.01,2013-05-10 21:46:00,
2013-05-10 16:51:00,69.1,39.6,29.93,NE,54,1.0,7.0,34,0.00,,,0.00,VWS V14.01,2013-05-10 21:51:00,
2013-05-10 16:56:00,69.6,38.5,29.93,NE,38,5.0,7.0,32,0.00,,,0.00,VWS V14.01,2013-05-10 21:56:00,
2013-05-10 16:58:00,69.6,38.5,29.93,NE,38,2.0,7.0,32,0.00,,,0.00,VWS V14.01,2013-05-10 21:58:00,
2013-05-10 16:59:00,69.6,40.8,29.93,North,0,7.0,10.0,35,0.00,,,0.00,VWS V14.01,2013-05-10 21:59:00,
2013-05-10 17:04:00,69.4,40.6,29.93,NNE,25,4.0,7.0,35,0.00,,,0.00,VWS V14.01,2013-05-10 22:04:00,
2013-05-10 17:09:00,69.8,39.4,29.93,North,10,5.0,7.0,33,0.00,,,0.00,VWS V14.01,2013-05-10 22:09:00,
2013-05-10 17:14:00,69.6,42.2,29.93,North,10,5.0,7.0,37,0.00,,,0.00,VWS V14.01,2013-05-10 22:14:00,
2013-05-10 17:19:00,69.8,38.6,29.92,NE,40,3.0,7.0,32,0.00,,,0.00,VWS V14.01,2013-05-10 22:19:00,
2013-05-10 17:24:00,69.8,37.0,29.92,North,4,5.0,10.0,30,0.00,,,0.00,VWS V14.01,2013-05-10 22:24:00,
2013-05-10 17:29:00,69.9,39.5,29.92,North,357,8.0,15.0,33,0.00,,,0.00,VWS V14.01,2013-05-10 22:29:00,
2013-05-10 17:34:00,70.1,37.3,29.92,North,353,10.0,16.0,30,0.00,,,0.00,VWS V14.01,2013-05-10 22:34:00,
2013-05-10 17:39:00,70.1,36.4,29.92,North,356,7.0,16.0,29,0.00,,,0.00,VWS V14.01,2013-05-10 22:39:00,
2013-05-10 17:44:00,70.1,38.1,29.92,North,359,7.0,16.0,31,0.00,,,0.00,VWS V14.01,2013-05-10 22:44:00,
2013-05-10 17:49:00,70.1,38.1,29.92,NNE,28,5.0,6.0,31,0.00,,,0.00,VWS V14.01,2013-05-10 22:49:00,
2013-05-10 17:54:00,69.9,37.1,29.92,NE,38,6.0,10.0,30,0.00,,,0.00,VWS V14.01,2013-05-10 22:54:00,
2013-05-10 17:59:00,69.9,41.8,29.92,NE,41,6.0,10.0,36,0.00,,,0.00,VWS V14.01,2013-05-10 22:59:00,
2013-05-10 18:04:00,69.9,38.7,29.92,NE,41,3.0,6.0,32,0.00,,,0.00,VWS V14.01,2013-05-10 23:04:00,
2013-05-10 18:09:00,69.8,40.2,29.92,North,0,3.0,10.0,34,0.00,,,0.00,VWS V14.01,2013-05-10 23:09:00,
2013-05-10 18:14:00,70.1,38.9,29.92,North,0,5.0,10.0,32,0.00,,,0.00,VWS V14.01,2013-05-10 23:14:00,
2013-05-10 18:19:00,69.8,40.9,29.91,North,357,5.0,7.0,35,0.00,,,0.00,VWS V14.01,2013-05-10 23:19:00,
2013-05-10 18:24:00,69.8,44.4,29.91,North,354,3.0,7.0,40,0.00,,,0.00,VWS V14.01,2013-05-10 23:24:00,
2013-05-10 18:29:00,70.1,39.7,29.91,North,354,5.0,7.0,33,0.00,,,0.00,VWS V14.01,2013-05-10 23:29:00,
2013-05-10 18:34:00,70.1,37.3,29.91,North,354,4.0,6.0,30,0.00,,,0.00,VWS V14.01,2013-05-10 23:34:00,
2013-05-10 18:39:00,69.8,43.8,29.91,North,354,2.0,6.0,39,0.00,,,0.00,VWS V14.01,2013-05-10 23:39:00,
2013-05-10 18:44:00,69.3,46.5,29.91,North,0,2.0,7.0,44,0.00,,,0.00,VWS V14.01,2013-05-10 23:44:00,
2013-05-10 18:49:00,69.6,36.8,29.91,North,11,3.0,6.0,30,0.00,,,0.00,VWS V14.01,2013-05-10 23:49:00,
2013-05-10 18:54:00,69.8,40.2,29.91,NNE,13,5.0,6.0,34,0.00,,,0.00,VWS V14.01,2013-05-10 23:54:00,
2013-05-10 18:59:00,69.4,39.8,29.91,NNE,13,4.0,7.0,34,0.00,,,0.00,VWS V14.01,2013-05-10 23:59:00,
2013-05-10 19:04:00,69.1,41.0,29.91,North,0,2.0,5.0,36,0.00,,,0.00,VWS V14.01,2013-05-11 00:04:00,
2013-05-10 19:09:00,69.1,41.8,29.91,North,0,3.0,6.0,37,0.00,,,0.00,VWS V14.01,2013-05-11 00:09:00,
2013-05-10 19:14:00,68.6,45.2,29.91,North,354,5.0,8.0,43,0.00,,,0.00,VWS V14.01,2013-05-11 00:14:00,
2013-05-10 19:19:00,68.4,48.0,29.91,North,354,2.0,3.0,48,0.00,,,0.00,VWS V14.01,2013-05-11 00:19:00,
2013-05-10 19:24:00,67.8,45.7,29.91,North,354,2.0,6.0,45,0.00,,,0.00,VWS V14.01,2013-05-11 00:24:00,
2013-05-10 19:29:00,67.9,40.7,29.91,North,354,2.0,6.0,37,0.00,,,0.00,VWS V14.01,2013-05-11 00:29:00,
2013-05-10 19:34:00,67.9,43.4,29.91,North,359,0.0,4.0,41,0.00,,,0.00,VWS V14.01,2013-05-11 00:34:00,
2013-05-10 19:39:00,67.8,45.1,29.91,North,359,3.0,5.0,44,0.00,,,0.00,VWS V14.01,2013-05-11 00:39:00,
2013-05-10 19:44:00,67.4,44.8,29.91,North,359,1.0,5.0,44,0.00,,,0.00,VWS V14.01,2013-05-11 00:44:00,
2013-05-10 19:49:00,67.3,46.4,29.91,North,359,2.0,2.0,47,0.00,,,0.00,VWS V14.01,2013-05-11 00:49:00,
2013-05-10 19:54:00,66.9,44.9,29.91,North,359,0.0,2.0,45,0.00,,,0.00,VWS V14.01,2013-05-11 00:54:00,
2013-05-10 19:59:00,66.8,45.4,29.91,North,359,1.0,2.0,46,0.00,,,0.00,VWS V14.01,2013-05-11 00:59:00,
2013-05-10 20:04:00,66.6,45.2,29.92,North,359,2.0,2.0,46,0.00,,,0.00,VWS V14.01,2013-05-11 01:04:00,
2013-05-10 20:09:00,66.1,45.3,29.92,North,359,2.0,4.0,47,0.00,,,0.00,VWS V14.01,2013-05-11 01:09:00,
2013-05-10 20:14:00,65.8,45.6,29.92,North,359,1.0,4.0,48,0.00,,,0.00,VWS V14.01,2013-05-11 01:14:00,
2013-05-10 20:19:00,65.5,45.8,29.92,North,359,2.0,2.0,49,0.00,,,0.00,VWS V14.01,2013-05-11 01:19:00,
2013-05-10 20:24:00,65.5,45.3,29.92,North,359,0.0,2.0,48,0.00,,,0.00,VWS V14.01,2013-05-11 01:24:00,
2013-05-10 20:29:00,65.3,45.1,29.92,North,359,0.0,2.0,48,0.00,,,0.00,VWS V14.01,2013-05-11 01:29:00,
2013-05-10 20:34:00,65.2,45.6,29.93,North,359,0.0,0.0,49,0.00,,,0.00,VWS V14.01,2013-05-11 01:34:00,
2013-05-10 20:39:00,65.0,45.4,29.93,North,359,0.0,1.0,49,0.00,,,0.00,VWS V14.01,2013-05-11 01:39:00,
2013-05-10 20:44:00,64.3,46.8,29.93,North,359,3.0,3.0,53,0.00,,,0.00,VWS V14.01,2013-05-11 01:44:00,
2013-05-10 20:49:00,63.9,46.5,29.94,North,359,0.0,0.0,53,0.00,,,0.00,VWS V14.01,2013-05-11 01:49:00,
2013-05-10 20:54:00,63.4,46.0,29.94,North,359,0.0,0.0,53,0.00,,,0.00,VWS V14.01,2013-05-11 01:54:00,
2013-05-10 20:59:00,63.2,45.8,29.94,North,359,0.0,0.0,53,0.00,,,0.00,VWS V14.01,2013-05-11 01:59:00,
2013-05-10 21:04:00,62.6,47.2,29.95,West,278,2.0,4.0,57,0.00,,,0.00,VWS V14.01,2013-05-11 02:04:00,
2013-05-10 21:09:00,62.3,46.4,29.95,West,278,0.0,4.0,56,0.00,,,0.00,VWS V14.01,2013-05-11 02:09:00,
2013-05-10 21:14:00,62.1,45.8,29.95,West,278,0.0,4.0,55,0.00,,,0.00,VWS V14.01,2013-05-11 02:14:00,
2013-05-10 21:19:00,62.0,46.1,29.95,West,278,0.0,0.0,56,0.00,,,0.00,VWS V14.01,2013-05-11 02:19:00,
2013-05-10 21:24:00,61.6,46.2,29.95,West,278,0.0,0.0,57,0.00,,,0.00,VWS V14.01,2013-05-11 02:24:00,
2013-05-10 21:29:00,61.5,46.1,29.95,West,278,0.0,0.0,57,0.00,,,0.00,VWS V14.01,2013-05-11 02:29:00,
2013-05-10 21:34:00,61.2,46.3,29.96,West,278,0.0,0.0,58,0.00,,,0.00,VWS V14.01,2013-05-11 02:34:00,
2013-05-10 21:39:00,60.9,45.6,29.96,West,278,0.0,0.0,57,0.00,,,0.00,VWS V14.01,2013-05-11 02:39:00,
2013-05-10 21:44:00,60.7,44.9,29.96,West,278,0.0,0.0,56,0.00,,,0.00,VWS V14.01,2013-05-11 02:44:00,
2013-05-10 21:49:00,60.7,44.5,29.96,West,278,0.0,0.0,55,0.00,,,0.00,VWS V14.01,2013-05-11 02:49:00,
2013-05-10 21:54:00,60.9,44.6,29.96,West,278,0.0,0.0,55,0.00,,,0.00,VWS V14.01,2013-05-11 02:54:00,
2013-05-10 21:59:00,60.9,44.6,29.96,West,278,0.0,0.0,55,0.00,,,0.00,VWS V14.01,2013-05-11 02:59:00,
2013-05-10 22:04:00,60.5,44.3,29.97,West,278,0.0,0.0,55,0.00,,,0.00,VWS V14.01,2013-05-11 03:04:00,
2013-05-10 22:09:00,60.7,43.0,29.97,West,278,1.0,1.0,52,0.00,,,0.00,VWS V14.01,2013-05-11 03:09:00,
2013-05-10 22:14:00,61.2,43.0,29.97,West,278,2.0,2.0,51,0.00,,,0.00,VWS V14.01,2013-05-11 03:14:00,
2013-05-10 22:19:00,61.5,43.2,29.97,West,278,0.0,0.0,51,0.00,,,0.00,VWS V14.01,2013-05-11 03:19:00,
2013-05-10 22:24:00,61.3,44.0,29.97,West,278,0.0,0.0,53,0.00,,,0.00,VWS V14.01,2013-05-11 03:24:00,
2013-05-10 22:29:00,60.5,44.7,29.97,West,278,0.0,0.0,56,0.00,,,0.00,VWS V14.01,2013-05-11 03:29:00,
2013-05-10 22:34:00,59.9,44.7,29.97,West,278,0.0,0.0,57,0.00,,,0.00,VWS V14.01,2013-05-11 03:34:00,
2013-05-10 22:39:00,59.6,44.4,29.97,West,278,0.0,0.0,57,0.00,,,0.00,VWS V14.01,2013-05-11 03:39:00,
2013-05-10 22:44:00,59.5,43.8,29.97,West,278,0.0,0.0,56,0.00,,,0.00,VWS V14.01,2013-05-11 03:44:00,
2013-05-10 22:49:00,59.3,43.2,29.98,West,278,0.0,0.0,55,0.00,,,0.00,VWS V14.01,2013-05-11 03:49:00,
2013-05-10 22:54:00,59.5,42.9,29.98,West,278,0.0,0.0,54,0.00,,,0.00,VWS V14.01,2013-05-11 03:54:00,
2013-05-10 22:59:00,59.3,42.7,29.98,West,278,0.0,0.0,54,0.00,,,0.00,VWS V14.01,2013-05-11 03:59:00,
2013-05-10 23:01:00,59.3,42.7,29.98,West,278,0.0,0.0,54,0.00,,,0.00,VWS V14.01,2013-05-11 04:01:00,
2013-05-10 23:02:00,59.3,42.2,29.98,West,278,0.0,0.0,53,0.00,,,0.00,VWS V14.01,2013-05-11 04:02:00,
2013-05-10 23:07:00,59.2,44.0,29.98,West,278,0.0,0.0,57,0.00,,,0.00,VWS V14.01,2013-05-11 04:07:00,
2013-05-10 23:12:00,58.6,43.9,29.98,West,278,0.0,0.0,58,0.00,,,0.00,VWS V14.01,2013-05-11 04:12:00,
2013-05-10 23:17:00,58.3,44.5,29.98,West,278,0.0,1.0,60,0.00,,,0.00,VWS V14.01,2013-05-11 04:17:00,
2013-05-10 23:22:00,57.8,44.0,29.98,West,278,2.0,2.0,60,0.00,,,0.00,VWS V14.01,2013-05-11 04:22:00,
2013-05-10 23:27:00,57.2,44.7,29.98,West,278,1.0,2.0,63,0.00,,,0.00,VWS V14.01,2013-05-11 04:27:00,
2013-05-10 23:32:00,56.9,44.5,29.98,West,278,0.0,2.0,63,0.00,,,0.00,VWS V14.01,2013-05-11 04:32:00,
2013-05-10 23:37:00,56.7,43.8,29.98,West,278,0.0,0.0,62,0.00,,,0.00,VWS V14.01,2013-05-11 04:37:00,
2013-05-10 23:42:00,56.7,43.8,29.98,West,278,0.0,0.0,62,0.00,,,0.00,VWS V14.01,2013-05-11 04:42:00,
2013-05-10 23:47:00,57.2,42.6,29.99,West,280,2.0,3.0,58,0.00,,,0.00,VWS V14.01,2013-05-11 04:47:00,
2013-05-10 23:52:00,59.8,42.7,29.99,North,356,7.0,20.0,53,0.00,,,0.00,VWS V14.01,2013-05-11 04:52:00,
2013-05-10 23:57:00,60.7,43.5,29.99,North,352,14.0,20.0,53,0.00,,,0.00,VWS V14.01,2013-05-11 04:57:00,